sensor_id;sensor_type;location;lat;lon;timestamp;P1;durP1;ratioP1;P2;durP2;ratioP2
58015;SDS011;43809;52.110;20.964;2024-03-22T00:00:04;37.38;;;28.88;;
58015;SDS011;43809;52.110;20.964;2024-03-22T00:02:12;35.90;;;26.70;;
58015;SDS011;43809;52.110;20.964;2024-03-22T00:04:13;32.85;;;24.95;;
58015;SDS011;43809;52.110;20.964;2024-03-22T00:06:14;31.52;;;24.70;;
58015;SDS011;43809;52.110;20.964;2024-03-22T00:08:15;36.78;;;27.42;;
58015;SDS011;43809;52.110;20.964;2024-03-22T00:10:15;35.72;;;26.30;;
58015;SDS011;43809;52.110;20.964;2024-03-22T00:12:16;32.20;;;24.42;;
58015;SDS011;43809;52.110;20.964;2024-03-22T00:14:17;48.33;;;33.55;;
58015;SDS011;43809;52.110;20.964;2024-03-22T00:16:17;42.35;;;31.10;;
58015;SDS011;43809;52.110;20.964;2024-03-22T00:18:18;43.03;;;32.72;;
58015;SDS011;43809;52.110;20.964;2024-03-22T00:20:19;40.53;;;31.13;;
58015;SDS011;43809;52.110;20.964;2024-03-22T00:22:20;46.85;;;33.88;;
58015;SDS011;43809;52.110;20.964;2024-03-22T00:24:21;44.80;;;33.25;;
58015;SDS011;43809;52.110;20.964;2024-03-22T00:29:36;43.75;;;31.63;;
58015;SDS011;43809;52.110;20.964;2024-03-22T00:31:37;43.28;;;32.65;;
58015;SDS011;43809;52.110;20.964;2024-03-22T00:35:51;41.25;;;31.42;;
58015;SDS011;43809;52.110;20.964;2024-03-22T00:37:52;46.70;;;34.30;;
58015;SDS011;43809;52.110;20.964;2024-03-22T00:39:53;47.95;;;34.50;;
58015;SDS011;43809;52.110;20.964;2024-03-22T00:41:53;39.67;;;29.98;;
58015;SDS011;43809;52.110;20.964;2024-03-22T00:43:55;43.03;;;31.73;;
58015;SDS011;43809;52.110;20.964;2024-03-22T00:45:56;43.00;;;32.77;;
58015;SDS011;43809;52.110;20.964;2024-03-22T00:47:57;41.97;;;31.98;;
58015;SDS011;43809;52.110;20.964;2024-03-22T00:49:57;43.05;;;31.85;;
58015;SDS011;43809;52.110;20.964;2024-03-22T00:51:59;42.10;;;31.60;;
58015;SDS011;43809;52.110;20.964;2024-03-22T00:56:20;41.22;;;31.30;;
58015;SDS011;43809;52.110;20.964;2024-03-22T00:58:21;42.85;;;29.88;;
58015;SDS011;43809;52.110;20.964;2024-03-22T01:00:22;34.35;;;26.33;;
58015;SDS011;43809;52.110;20.964;2024-03-22T01:02:23;41.28;;;30.60;;
58015;SDS011;43809;52.110;20.964;2024-03-22T01:04:23;40.38;;;30.27;;
58015;SDS011;43809;52.110;20.964;2024-03-22T01:14:33;48.45;;;35.30;;
58015;SDS011;43809;52.110;20.964;2024-03-22T01:31:54;47.80;;;34.85;;
58015;SDS011;43809;52.110;20.964;2024-03-22T01:33:54;45.40;;;32.85;;
58015;SDS011;43809;52.110;20.964;2024-03-22T01:35:55;53.97;;;38.58;;
58015;SDS011;43809;52.110;20.964;2024-03-22T01:37:56;44.15;;;33.78;;
58015;SDS011;43809;52.110;20.964;2024-03-22T01:39:57;58.38;;;42.50;;
58015;SDS011;43809;52.110;20.964;2024-03-22T01:47:29;55.95;;;40.17;;
58015;SDS011;43809;52.110;20.964;2024-03-22T01:49:30;61.45;;;42.83;;
58015;SDS011;43809;52.110;20.964;2024-03-22T01:54:10;56.17;;;40.17;;
58015;SDS011;43809;52.110;20.964;2024-03-22T01:56:11;65.45;;;44.17;;
58015;SDS011;43809;52.110;20.964;2024-03-22T01:58:12;55.72;;;38.53;;
58015;SDS011;43809;52.110;20.964;2024-03-22T02:00:13;74.25;;;47.45;;
58015;SDS011;43809;52.110;20.964;2024-03-22T02:02:17;70.00;;;44.97;;
58015;SDS011;43809;52.110;20.964;2024-03-22T02:04:18;65.97;;;42.72;;
58015;SDS011;43809;52.110;20.964;2024-03-22T02:12:45;67.93;;;46.15;;
58015;SDS011;43809;52.110;20.964;2024-03-22T02:14:45;64.10;;;43.40;;
58015;SDS011;43809;52.110;20.964;2024-03-22T02:16:46;80.97;;;49.78;;
58015;SDS011;43809;52.110;20.964;2024-03-22T02:18:47;63.90;;;44.33;;
58015;SDS011;43809;52.110;20.964;2024-03-22T02:20:48;60.25;;;41.70;;
58015;SDS011;43809;52.110;20.964;2024-03-22T02:22:48;66.22;;;42.97;;
58015;SDS011;43809;52.110;20.964;2024-03-22T02:24:49;62.40;;;42.97;;
58015;SDS011;43809;52.110;20.964;2024-03-22T02:26:50;68.47;;;44.83;;
58015;SDS011;43809;52.110;20.964;2024-03-22T02:31:10;70.72;;;45.63;;
58015;SDS011;43809;52.110;20.964;2024-03-22T02:33:10;71.20;;;46.33;;
58015;SDS011;43809;52.110;20.964;2024-03-22T02:35:11;74.22;;;45.92;;
58015;SDS011;43809;52.110;20.964;2024-03-22T02:37:12;60.83;;;43.72;;
58015;SDS011;43809;52.110;20.964;2024-03-22T02:39:15;75.70;;;48.45;;
58015;SDS011;43809;52.110;20.964;2024-03-22T02:41:16;61.60;;;41.58;;
58015;SDS011;43809;52.110;20.964;2024-03-22T02:43:17;58.67;;;40.33;;
58015;SDS011;43809;52.110;20.964;2024-03-22T02:45:19;67.17;;;43.57;;
58015;SDS011;43809;52.110;20.964;2024-03-22T02:47:20;63.42;;;40.75;;
58015;SDS011;43809;52.110;20.964;2024-03-22T02:49:21;73.50;;;45.65;;
58015;SDS011;43809;52.110;20.964;2024-03-22T02:51:22;73.78;;;47.00;;
58015;SDS011;43809;52.110;20.964;2024-03-22T02:53:23;80.65;;;49.83;;
58015;SDS011;43809;52.110;20.964;2024-03-22T02:55:26;75.45;;;48.15;;
58015;SDS011;43809;52.110;20.964;2024-03-22T02:57:29;70.97;;;48.95;;
58015;SDS011;43809;52.110;20.964;2024-03-22T02:59:30;70.85;;;44.83;;
58015;SDS011;43809;52.110;20.964;2024-03-22T03:01:34;73.43;;;46.58;;
58015;SDS011;43809;52.110;20.964;2024-03-22T03:35:59;109.78;;;43.92;;
58015;SDS011;43809;52.110;20.964;2024-03-22T03:38:04;63.00;;;39.17;;
58015;SDS011;43809;52.110;20.964;2024-03-22T03:40:21;89.35;;;41.42;;
58015;SDS011;43809;52.110;20.964;2024-03-22T03:42:25;74.70;;;41.55;;
58015;SDS011;43809;52.110;20.964;2024-03-22T03:44:26;66.70;;;41.47;;
58015;SDS011;43809;52.110;20.964;2024-03-22T03:46:27;69.65;;;41.53;;
58015;SDS011;43809;52.110;20.964;2024-03-22T03:48:28;64.03;;;40.53;;
58015;SDS011;43809;52.110;20.964;2024-03-22T03:50:28;55.58;;;38.90;;
58015;SDS011;43809;52.110;20.964;2024-03-22T03:52:29;66.15;;;42.42;;
58015;SDS011;43809;52.110;20.964;2024-03-22T04:00:27;70.05;;;41.85;;
58015;SDS011;43809;52.110;20.964;2024-03-22T04:02:28;62.70;;;41.33;;
58015;SDS011;43809;52.110;20.964;2024-03-22T04:07:53;66.82;;;42.20;;
58015;SDS011;43809;52.110;20.964;2024-03-22T04:09:54;67.78;;;44.05;;
58015;SDS011;43809;52.110;20.964;2024-03-22T04:11:54;54.72;;;38.33;;
58015;SDS011;43809;52.110;20.964;2024-03-22T04:13:59;60.47;;;40.40;;
58015;SDS011;43809;52.110;20.964;2024-03-22T04:16:00;57.75;;;41.17;;
58015;SDS011;43809;52.110;20.964;2024-03-22T04:18:00;58.92;;;39.55;;
58015;SDS011;43809;52.110;20.964;2024-03-22T04:20:01;62.28;;;41.72;;
58015;SDS011;43809;52.110;20.964;2024-03-22T04:22:03;59.10;;;40.03;;
58015;SDS011;43809;52.110;20.964;2024-03-22T04:26:52;65.90;;;43.05;;
58015;SDS011;43809;52.110;20.964;2024-03-22T04:34:34;70.53;;;41.00;;
58015;SDS011;43809;52.110;20.964;2024-03-22T04:36:34;60.40;;;38.10;;
58015;SDS011;43809;52.110;20.964;2024-03-22T04:38:43;63.08;;;39.92;;
58015;SDS011;43809;52.110;20.964;2024-03-22T04:40:44;60.25;;;37.38;;
58015;SDS011;43809;52.110;20.964;2024-03-22T04:42:45;52.85;;;34.47;;
58015;SDS011;43809;52.110;20.964;2024-03-22T04:44:46;57.15;;;34.63;;
58015;SDS011;43809;52.110;20.964;2024-03-22T04:46:50;56.00;;;34.73;;
58015;SDS011;43809;52.110;20.964;2024-03-22T04:48:52;59.60;;;36.75;;
58015;SDS011;43809;52.110;20.964;2024-03-22T04:50:52;50.07;;;32.87;;
58015;SDS011;43809;52.110;20.964;2024-03-22T04:52:53;49.00;;;31.48;;
58015;SDS011;43809;52.110;20.964;2024-03-22T04:55:05;44.90;;;31.27;;
58015;SDS011;43809;52.110;20.964;2024-03-22T04:57:06;45.53;;;31.43;;
58015;SDS011;43809;52.110;20.964;2024-03-22T04:59:15;43.72;;;29.45;;
58015;SDS011;43809;52.110;20.964;2024-03-22T05:01:38;58.03;;;33.63;;
58015;SDS011;43809;52.110;20.964;2024-03-22T05:03:47;46.47;;;32.22;;
58015;SDS011;43809;52.110;20.964;2024-03-22T05:05:49;46.47;;;30.30;;
58015;SDS011;43809;52.110;20.964;2024-03-22T05:07:55;46.95;;;31.27;;
58015;SDS011;43809;52.110;20.964;2024-03-22T05:10:11;40.07;;;27.07;;
58015;SDS011;43809;52.110;20.964;2024-03-22T05:12:31;53.70;;;32.25;;
58015;SDS011;43809;52.110;20.964;2024-03-22T05:17:04;50.20;;;32.43;;
58015;SDS011;43809;52.110;20.964;2024-03-22T05:24:22;43.67;;;29.65;;
58015;SDS011;43809;52.110;20.964;2024-03-22T05:29:16;49.15;;;32.10;;
58015;SDS011;43809;52.110;20.964;2024-03-22T05:31:20;44.22;;;29.55;;
58015;SDS011;43809;52.110;20.964;2024-03-22T05:33:21;47.20;;;29.85;;
58015;SDS011;43809;52.110;20.964;2024-03-22T05:35:24;39.72;;;25.63;;
58015;SDS011;43809;52.110;20.964;2024-03-22T05:37:45;41.63;;;27.42;;
58015;SDS011;43809;52.110;20.964;2024-03-22T05:39:46;37.85;;;24.25;;
58015;SDS011;43809;52.110;20.964;2024-03-22T05:41:57;35.20;;;23.42;;
58015;SDS011;43809;52.110;20.964;2024-03-22T05:46:30;41.95;;;27.05;;
58015;SDS011;43809;52.110;20.964;2024-03-22T05:48:37;38.00;;;24.92;;
58015;SDS011;43809;52.110;20.964;2024-03-22T05:50:43;39.75;;;26.20;;
58015;SDS011;43809;52.110;20.964;2024-03-22T05:52:50;50.10;;;29.73;;
58015;SDS011;43809;52.110;20.964;2024-03-22T06:07:37;48.55;;;30.27;;
58015;SDS011;43809;52.110;20.964;2024-03-22T06:10:03;55.00;;;34.80;;
58015;SDS011;43809;52.110;20.964;2024-03-22T06:12:36;48.30;;;28.90;;
58015;SDS011;43809;52.110;20.964;2024-03-22T06:14:58;38.35;;;24.10;;
58015;SDS011;43809;52.110;20.964;2024-03-22T06:17:03;55.50;;;28.33;;
58015;SDS011;43809;52.110;20.964;2024-03-22T06:19:07;35.67;;;23.05;;
58015;SDS011;43809;52.110;20.964;2024-03-22T06:21:07;37.00;;;21.88;;
58015;SDS011;43809;52.110;20.964;2024-03-22T06:23:11;36.00;;;22.63;;
58015;SDS011;43809;52.110;20.964;2024-03-22T06:25:12;37.13;;;24.42;;
58015;SDS011;43809;52.110;20.964;2024-03-22T06:27:13;46.22;;;26.90;;
58015;SDS011;43809;52.110;20.964;2024-03-22T06:29:23;45.97;;;30.10;;
58015;SDS011;43809;52.110;20.964;2024-03-22T06:31:23;56.67;;;30.42;;
58015;SDS011;43809;52.110;20.964;2024-03-22T06:33:24;56.05;;;33.95;;
58015;SDS011;43809;52.110;20.964;2024-03-22T06:35:25;72.15;;;36.80;;
58015;SDS011;43809;52.110;20.964;2024-03-22T06:37:26;61.85;;;37.20;;
58015;SDS011;43809;52.110;20.964;2024-03-22T06:39:26;67.55;;;36.80;;
58015;SDS011;43809;52.110;20.964;2024-03-22T06:41:27;62.15;;;33.72;;
58015;SDS011;43809;52.110;20.964;2024-03-22T06:43:28;70.05;;;36.47;;
58015;SDS011;43809;52.110;20.964;2024-03-22T06:45:29;61.88;;;34.17;;
58015;SDS011;43809;52.110;20.964;2024-03-22T06:47:30;54.20;;;30.48;;
58015;SDS011;43809;52.110;20.964;2024-03-22T06:49:30;40.70;;;27.67;;
58015;SDS011;43809;52.110;20.964;2024-03-22T06:51:31;52.78;;;33.10;;
58015;SDS011;43809;52.110;20.964;2024-03-22T06:56:05;55.85;;;35.75;;
58015;SDS011;43809;52.110;20.964;2024-03-22T06:58:05;42.53;;;27.83;;
58015;SDS011;43809;52.110;20.964;2024-03-22T07:00:06;69.45;;;36.63;;
58015;SDS011;43809;52.110;20.964;2024-03-22T07:02:10;49.97;;;30.63;;
58015;SDS011;43809;52.110;20.964;2024-03-22T07:04:11;60.97;;;35.75;;
58015;SDS011;43809;52.110;20.964;2024-03-22T07:06:13;77.57;;;39.95;;
58015;SDS011;43809;52.110;20.964;2024-03-22T07:08:14;61.47;;;37.25;;
58015;SDS011;43809;52.110;20.964;2024-03-22T07:10:15;59.03;;;36.88;;
58015;SDS011;43809;52.110;20.964;2024-03-22T07:12:15;50.22;;;32.72;;
58015;SDS011;43809;52.110;20.964;2024-03-22T07:14:16;46.95;;;30.65;;
58015;SDS011;43809;52.110;20.964;2024-03-22T07:16:18;48.60;;;31.15;;
58015;SDS011;43809;52.110;20.964;2024-03-22T07:18:19;40.15;;;27.15;;
58015;SDS011;43809;52.110;20.964;2024-03-22T07:20:19;42.58;;;28.63;;
58015;SDS011;43809;52.110;20.964;2024-03-22T07:22:20;45.60;;;28.75;;
58015;SDS011;43809;52.110;20.964;2024-03-22T07:24:21;45.70;;;30.45;;
58015;SDS011;43809;52.110;20.964;2024-03-22T07:29:49;48.65;;;29.98;;
58015;SDS011;43809;52.110;20.964;2024-03-22T07:31:49;59.70;;;33.20;;
58015;SDS011;43809;52.110;20.964;2024-03-22T07:33:50;46.15;;;30.85;;
58015;SDS011;43809;52.110;20.964;2024-03-22T07:35:51;42.20;;;28.73;;
58015;SDS011;43809;52.110;20.964;2024-03-22T07:37:53;66.35;;;34.65;;
58015;SDS011;43809;52.110;20.964;2024-03-22T07:39:53;36.83;;;25.30;;
58015;SDS011;43809;52.110;20.964;2024-03-22T07:47:26;35.28;;;23.95;;
58015;SDS011;43809;52.110;20.964;2024-03-22T07:49:27;31.20;;;21.77;;
58015;SDS011;43809;52.110;20.964;2024-03-22T07:51:27;34.60;;;24.38;;
58015;SDS011;43809;52.110;20.964;2024-03-22T07:53:28;35.13;;;23.75;;
58015;SDS011;43809;52.110;20.964;2024-03-22T07:55:29;36.53;;;24.02;;
58015;SDS011;43809;52.110;20.964;2024-03-22T07:57:30;42.80;;;28.20;;
58015;SDS011;43809;52.110;20.964;2024-03-22T07:59:34;40.47;;;26.00;;
58015;SDS011;43809;52.110;20.964;2024-03-22T08:01:35;47.85;;;31.35;;
58015;SDS011;43809;52.110;20.964;2024-03-22T08:03:35;43.28;;;29.13;;
58015;SDS011;43809;52.110;20.964;2024-03-22T08:05:36;51.28;;;31.75;;
58015;SDS011;43809;52.110;20.964;2024-03-22T08:07:37;40.92;;;27.50;;
58015;SDS011;43809;52.110;20.964;2024-03-22T08:09:38;36.15;;;24.25;;
58015;SDS011;43809;52.110;20.964;2024-03-22T08:11:38;30.77;;;21.20;;
58015;SDS011;43809;52.110;20.964;2024-03-22T08:13:39;31.92;;;21.08;;
58015;SDS011;43809;52.110;20.964;2024-03-22T08:15:40;27.73;;;19.63;;
58015;SDS011;43809;52.110;20.964;2024-03-22T08:17:40;27.35;;;19.60;;
58015;SDS011;43809;52.110;20.964;2024-03-22T08:19:41;28.35;;;20.80;;
58015;SDS011;43809;52.110;20.964;2024-03-22T08:21:42;29.85;;;21.25;;
58015;SDS011;43809;52.110;20.964;2024-03-22T08:26:12;24.92;;;18.25;;
58015;SDS011;43809;52.110;20.964;2024-03-22T08:28:13;22.40;;;17.25;;
58015;SDS011;43809;52.110;20.964;2024-03-22T08:30:14;22.02;;;16.02;;
58015;SDS011;43809;52.110;20.964;2024-03-22T08:32:14;26.05;;;18.83;;
58015;SDS011;43809;52.110;20.964;2024-03-22T08:34:15;29.95;;;21.30;;
58015;SDS011;43809;52.110;20.964;2024-03-22T08:36:16;30.60;;;22.10;;
58015;SDS011;43809;52.110;20.964;2024-03-22T08:38:17;30.85;;;22.52;;
58015;SDS011;43809;52.110;20.964;2024-03-22T08:40:17;29.25;;;20.75;;
58015;SDS011;43809;52.110;20.964;2024-03-22T08:42:18;28.15;;;20.45;;
58015;SDS011;43809;52.110;20.964;2024-03-22T08:44:19;27.80;;;19.90;;
58015;SDS011;43809;52.110;20.964;2024-03-22T08:49:08;28.20;;;20.65;;
58015;SDS011;43809;52.110;20.964;2024-03-22T08:51:09;22.55;;;16.90;;
58015;SDS011;43809;52.110;20.964;2024-03-22T08:53:09;20.13;;;14.98;;
58015;SDS011;43809;52.110;20.964;2024-03-22T08:55:10;27.90;;;18.80;;
58015;SDS011;43809;52.110;20.964;2024-03-22T08:57:11;24.73;;;18.90;;
58015;SDS011;43809;52.110;20.964;2024-03-22T08:59:12;28.95;;;22.08;;
58015;SDS011;43809;52.110;20.964;2024-03-22T09:01:12;26.95;;;19.15;;
58015;SDS011;43809;52.110;20.964;2024-03-22T09:03:13;26.35;;;18.33;;
58015;SDS011;43809;52.110;20.964;2024-03-22T09:05:15;29.30;;;20.42;;
58015;SDS011;43809;52.110;20.964;2024-03-22T09:10:09;31.80;;;21.77;;
58015;SDS011;43809;52.110;20.964;2024-03-22T09:12:10;29.17;;;21.42;;
58015;SDS011;43809;52.110;20.964;2024-03-22T09:14:10;26.80;;;19.65;;
58015;SDS011;43809;52.110;20.964;2024-03-22T09:16:12;25.40;;;18.55;;
58015;SDS011;43809;52.110;20.964;2024-03-22T09:18:12;26.70;;;20.70;;
58015;SDS011;43809;52.110;20.964;2024-03-22T09:20:13;30.15;;;21.85;;
58015;SDS011;43809;52.110;20.964;2024-03-22T09:22:14;29.23;;;21.70;;
58015;SDS011;43809;52.110;20.964;2024-03-22T09:24:15;27.42;;;20.45;;
58015;SDS011;43809;52.110;20.964;2024-03-22T09:26:16;31.95;;;23.77;;
58015;SDS011;43809;52.110;20.964;2024-03-22T09:28:17;27.83;;;20.70;;
58015;SDS011;43809;52.110;20.964;2024-03-22T09:30:17;24.05;;;18.33;;
58015;SDS011;43809;52.110;20.964;2024-03-22T09:32:18;30.52;;;20.83;;
58015;SDS011;43809;52.110;20.964;2024-03-22T09:34:19;33.50;;;24.40;;
58015;SDS011;43809;52.110;20.964;2024-03-22T09:36:20;28.67;;;21.92;;
58015;SDS011;43809;52.110;20.964;2024-03-22T09:38:22;27.80;;;20.85;;
58015;SDS011;43809;52.110;20.964;2024-03-22T09:40:22;34.45;;;24.65;;
58015;SDS011;43809;52.110;20.964;2024-03-22T09:42:24;26.92;;;21.20;;
58015;SDS011;43809;52.110;20.964;2024-03-22T09:44:28;25.67;;;19.38;;
58015;SDS011;43809;52.110;20.964;2024-03-22T09:46:29;34.78;;;24.83;;
58015;SDS011;43809;52.110;20.964;2024-03-22T09:48:30;32.17;;;23.85;;
58015;SDS011;43809;52.110;20.964;2024-03-22T09:50:32;32.85;;;23.42;;
58015;SDS011;43809;52.110;20.964;2024-03-22T09:52:33;28.52;;;21.30;;
58015;SDS011;43809;52.110;20.964;2024-03-22T09:54:35;30.83;;;23.38;;
58015;SDS011;43809;52.110;20.964;2024-03-22T09:56:39;27.63;;;21.00;;
58015;SDS011;43809;52.110;20.964;2024-03-22T09:58:42;24.65;;;19.20;;
58015;SDS011;43809;52.110;20.964;2024-03-22T10:00:44;25.38;;;18.73;;
58015;SDS011;43809;52.110;20.964;2024-03-22T10:02:46;21.85;;;16.63;;
58015;SDS011;43809;52.110;20.964;2024-03-22T10:04:47;25.67;;;18.92;;
58015;SDS011;43809;52.110;20.964;2024-03-22T10:06:48;26.88;;;19.38;;
58015;SDS011;43809;52.110;20.964;2024-03-22T10:08:48;25.80;;;19.65;;
58015;SDS011;43809;52.110;20.964;2024-03-22T10:10:49;25.25;;;19.10;;
58015;SDS011;43809;52.110;20.964;2024-03-22T10:12:50;23.02;;;17.88;;
58015;SDS011;43809;52.110;20.964;2024-03-22T10:14:53;28.20;;;21.13;;
58015;SDS011;43809;52.110;20.964;2024-03-22T10:16:54;25.42;;;19.77;;
58015;SDS011;43809;52.110;20.964;2024-03-22T10:18:55;26.13;;;19.85;;
58015;SDS011;43809;52.110;20.964;2024-03-22T10:21:04;31.98;;;22.67;;
58015;SDS011;43809;52.110;20.964;2024-03-22T10:23:05;32.70;;;23.63;;
58015;SDS011;43809;52.110;20.964;2024-03-22T10:25:08;30.58;;;24.48;;
58015;SDS011;43809;52.110;20.964;2024-03-22T10:27:09;26.75;;;21.05;;
58015;SDS011;43809;52.110;20.964;2024-03-22T10:29:10;24.00;;;18.65;;
58015;SDS011;43809;52.110;20.964;2024-03-22T10:31:12;30.85;;;23.63;;
58015;SDS011;43809;52.110;20.964;2024-03-22T10:33:13;26.35;;;21.13;;
58015;SDS011;43809;52.110;20.964;2024-03-22T10:35:14;26.35;;;20.27;;
58015;SDS011;43809;52.110;20.964;2024-03-22T10:37:15;28.42;;;21.58;;
58015;SDS011;43809;52.110;20.964;2024-03-22T10:39:16;26.15;;;21.50;;
58015;SDS011;43809;52.110;20.964;2024-03-22T10:41:18;25.20;;;20.20;;
58015;SDS011;43809;52.110;20.964;2024-03-22T10:43:19;24.63;;;20.33;;
58015;SDS011;43809;52.110;20.964;2024-03-22T10:45:19;28.92;;;22.88;;
58015;SDS011;43809;52.110;20.964;2024-03-22T10:47:26;26.45;;;21.33;;
58015;SDS011;43809;52.110;20.964;2024-03-22T10:49:28;32.63;;;25.30;;
58015;SDS011;43809;52.110;20.964;2024-03-22T10:54:43;35.42;;;26.08;;
58015;SDS011;43809;52.110;20.964;2024-03-22T10:56:46;34.05;;;24.80;;
58015;SDS011;43809;52.110;20.964;2024-03-22T10:58:48;28.52;;;23.08;;
58015;SDS011;43809;52.110;20.964;2024-03-22T11:00:53;27.20;;;22.63;;
58015;SDS011;43809;52.110;20.964;2024-03-22T11:02:56;29.85;;;24.08;;
58015;SDS011;43809;52.110;20.964;2024-03-22T11:04:57;28.92;;;22.60;;
58015;SDS011;43809;52.110;20.964;2024-03-22T11:06:58;24.98;;;20.67;;
58015;SDS011;43809;52.110;20.964;2024-03-22T11:08:59;25.88;;;21.00;;
58015;SDS011;43809;52.110;20.964;2024-03-22T11:11:12;26.40;;;21.40;;
58015;SDS011;43809;52.110;20.964;2024-03-22T11:13:15;28.13;;;21.98;;
58015;SDS011;43809;52.110;20.964;2024-03-22T11:15:16;25.23;;;20.55;;
58015;SDS011;43809;52.110;20.964;2024-03-22T11:17:18;26.42;;;21.15;;
58015;SDS011;43809;52.110;20.964;2024-03-22T11:19:32;25.48;;;20.60;;
58015;SDS011;43809;52.110;20.964;2024-03-22T11:21:33;26.85;;;20.33;;
58015;SDS011;43809;52.110;20.964;2024-03-22T11:23:35;24.88;;;19.83;;
58015;SDS011;43809;52.110;20.964;2024-03-22T11:25:37;24.23;;;19.92;;
58015;SDS011;43809;52.110;20.964;2024-03-22T11:27:37;21.95;;;18.50;;
58015;SDS011;43809;52.110;20.964;2024-03-22T11:29:38;23.38;;;18.85;;
58015;SDS011;43809;52.110;20.964;2024-03-22T11:34:09;44.85;;;36.25;;
58015;SDS011;43809;52.110;20.964;2024-03-22T11:36:24;41.85;;;34.97;;
58015;SDS011;43809;52.110;20.964;2024-03-22T11:38:28;28.63;;;21.75;;
58015;SDS011;43809;52.110;20.964;2024-03-22T11:40:47;26.13;;;20.60;;
58015;SDS011;43809;52.110;20.964;2024-03-22T11:42:49;24.85;;;19.85;;
58015;SDS011;43809;52.110;20.964;2024-03-22T11:44:51;22.98;;;18.30;;
58015;SDS011;43809;52.110;20.964;2024-03-22T11:46:52;70.05;;;59.20;;
58015;SDS011;43809;52.110;20.964;2024-03-22T11:49:11;30.70;;;25.30;;
58015;SDS011;43809;52.110;20.964;2024-03-22T11:51:12;23.73;;;19.30;;
58015;SDS011;43809;52.110;20.964;2024-03-22T11:53:12;20.63;;;17.10;;
58015;SDS011;43809;52.110;20.964;2024-03-22T11:55:14;19.58;;;16.00;;
58015;SDS011;43809;52.110;20.964;2024-03-22T11:57:15;21.63;;;17.13;;
58015;SDS011;43809;52.110;20.964;2024-03-22T11:59:19;20.17;;;16.65;;
58015;SDS011;43809;52.110;20.964;2024-03-22T12:01:19;20.38;;;16.42;;
58015;SDS011;43809;52.110;20.964;2024-03-22T12:03:22;19.55;;;16.23;;
58015;SDS011;43809;52.110;20.964;2024-03-22T12:05:22;17.83;;;14.50;;
58015;SDS011;43809;52.110;20.964;2024-03-22T12:07:23;18.13;;;14.45;;
58015;SDS011;43809;52.110;20.964;2024-03-22T12:11:45;15.70;;;13.02;;
58015;SDS011;43809;52.110;20.964;2024-03-22T12:13:58;16.38;;;13.23;;
58015;SDS011;43809;52.110;20.964;2024-03-22T12:15:59;15.27;;;12.73;;
58015;SDS011;43809;52.110;20.964;2024-03-22T12:17:59;14.55;;;11.88;;
58015;SDS011;43809;52.110;20.964;2024-03-22T12:20:00;14.60;;;12.13;;
58015;SDS011;43809;52.110;20.964;2024-03-22T12:22:18;13.98;;;11.10;;
58015;SDS011;43809;52.110;20.964;2024-03-22T12:24:18;18.13;;;13.07;;
58015;SDS011;43809;52.110;20.964;2024-03-22T12:26:19;15.60;;;12.48;;
58015;SDS011;43809;52.110;20.964;2024-03-22T12:28:20;14.32;;;11.43;;
58015;SDS011;43809;52.110;20.964;2024-03-22T12:30:21;13.98;;;11.63;;
58015;SDS011;43809;52.110;20.964;2024-03-22T12:32:22;15.13;;;11.90;;
58015;SDS011;43809;52.110;20.964;2024-03-22T12:34:23;16.05;;;13.77;;
58015;SDS011;43809;52.110;20.964;2024-03-22T12:36:23;14.45;;;12.00;;
58015;SDS011;43809;52.110;20.964;2024-03-22T12:38:24;15.20;;;12.43;;
58015;SDS011;43809;52.110;20.964;2024-03-22T12:40:25;16.42;;;13.60;;
58015;SDS011;43809;52.110;20.964;2024-03-22T12:42:27;15.83;;;13.53;;
58015;SDS011;43809;52.110;20.964;2024-03-22T12:44:27;15.65;;;12.93;;
58015;SDS011;43809;52.110;20.964;2024-03-22T12:46:28;15.13;;;12.77;;
58015;SDS011;43809;52.110;20.964;2024-03-22T12:51:56;16.50;;;12.80;;
58015;SDS011;43809;52.110;20.964;2024-03-22T12:53:57;14.65;;;11.95;;
58015;SDS011;43809;52.110;20.964;2024-03-22T12:55:58;17.17;;;14.07;;
58015;SDS011;43809;52.110;20.964;2024-03-22T12:57:58;16.10;;;13.55;;
58015;SDS011;43809;52.110;20.964;2024-03-22T12:59:59;12.45;;;10.50;;
58015;SDS011;43809;52.110;20.964;2024-03-22T13:02:00;12.98;;;11.48;;
58015;SDS011;43809;52.110;20.964;2024-03-22T13:04:14;14.98;;;12.18;;
58015;SDS011;43809;52.110;20.964;2024-03-22T13:06:14;14.95;;;12.10;;
58015;SDS011;43809;52.110;20.964;2024-03-22T13:08:15;15.27;;;13.02;;
58015;SDS011;43809;52.110;20.964;2024-03-22T13:10:16;16.15;;;13.60;;
58015;SDS011;43809;52.110;20.964;2024-03-22T13:12:17;13.43;;;12.00;;
58015;SDS011;43809;52.110;20.964;2024-03-22T13:14:18;14.10;;;12.45;;
58015;SDS011;43809;52.110;20.964;2024-03-22T13:16:19;14.15;;;11.90;;
58015;SDS011;43809;52.110;20.964;2024-03-22T13:18:19;13.65;;;12.00;;
58015;SDS011;43809;52.110;20.964;2024-03-22T13:20:20;16.15;;;13.65;;
58015;SDS011;43809;52.110;20.964;2024-03-22T13:22:21;13.70;;;11.30;;
58015;SDS011;43809;52.110;20.964;2024-03-22T13:24:21;13.63;;;11.82;;
58015;SDS011;43809;52.110;20.964;2024-03-22T13:26:23;13.52;;;11.48;;
58015;SDS011;43809;52.110;20.964;2024-03-22T13:28:24;15.17;;;12.87;;
58015;SDS011;43809;52.110;20.964;2024-03-22T13:30:25;18.60;;;15.05;;
58015;SDS011;43809;52.110;20.964;2024-03-22T13:32:25;17.85;;;14.25;;
58015;SDS011;43809;52.110;20.964;2024-03-22T13:34:40;15.27;;;12.98;;
58015;SDS011;43809;52.110;20.964;2024-03-22T13:36:42;19.25;;;15.35;;
58015;SDS011;43809;52.110;20.964;2024-03-22T13:38:43;15.63;;;13.50;;
58015;SDS011;43809;52.110;20.964;2024-03-22T13:40:52;15.63;;;13.93;;
58015;SDS011;43809;52.110;20.964;2024-03-22T13:42:53;16.73;;;13.98;;
58015;SDS011;43809;52.110;20.964;2024-03-22T13:44:55;15.20;;;13.57;;
58015;SDS011;43809;52.110;20.964;2024-03-22T13:46:57;15.30;;;12.98;;
58015;SDS011;43809;52.110;20.964;2024-03-22T13:51:28;15.30;;;13.38;;
58015;SDS011;43809;52.110;20.964;2024-03-22T13:53:29;13.65;;;11.95;;
58015;SDS011;43809;52.110;20.964;2024-03-22T13:55:30;14.77;;;12.93;;
58015;SDS011;43809;52.110;20.964;2024-03-22T13:57:30;14.73;;;12.80;;
58015;SDS011;43809;52.110;20.964;2024-03-22T13:59:31;12.57;;;11.27;;
58015;SDS011;43809;52.110;20.964;2024-03-22T14:01:32;15.93;;;13.48;;
58015;SDS011;43809;52.110;20.964;2024-03-22T14:03:51;12.70;;;11.32;;
58015;SDS011;43809;52.110;20.964;2024-03-22T14:05:52;12.82;;;10.88;;
58015;SDS011;43809;52.110;20.964;2024-03-22T14:07:52;12.70;;;11.38;;
58015;SDS011;43809;52.110;20.964;2024-03-22T14:09:53;13.35;;;11.90;;
58015;SDS011;43809;52.110;20.964;2024-03-22T14:11:54;17.33;;;15.48;;
58015;SDS011;43809;52.110;20.964;2024-03-22T14:13:54;17.58;;;15.35;;
58015;SDS011;43809;52.110;20.964;2024-03-22T14:15:55;17.50;;;15.32;;
58015;SDS011;43809;52.110;20.964;2024-03-22T14:17:56;18.60;;;16.45;;
58015;SDS011;43809;52.110;20.964;2024-03-22T14:19:56;17.95;;;15.30;;
58015;SDS011;43809;52.110;20.964;2024-03-22T14:21:57;17.63;;;15.07;;